createdAt,value
2022-11-17T00:01:53.117Z,10.10
2022-11-17T00:04:22.723Z,8.77
2022-11-17T00:06:51.164Z,10.73
2022-11-17T00:09:19.368Z,9.60
2022-11-17T00:12:06.088Z,9.82
2022-11-17T00:14:36.649Z,9.52
2022-11-17T00:17:07.102Z,10.13
2022-11-17T00:19:54.479Z,8.80
2022-11-17T00:22:23.166Z,7.50
2022-11-17T00:24:51.433Z,7.35
2022-11-17T00:27:19.921Z,7.85
2022-11-17T00:29:47.910Z,7.05
2022-11-17T00:32:34.910Z,9.73
2022-11-17T00:35:05.656Z,10.15
2022-11-17T00:37:36.705Z,6.80
2022-11-17T00:40:05.701Z,6.95
2022-11-17T00:42:34.225Z,8.20
2022-11-17T00:45:02.337Z,12.30
2022-11-17T00:47:30.868Z,10.20
2022-11-17T00:49:58.959Z,6.43
2022-11-17T00:52:28.698Z,6.95
2022-11-17T00:54:56.797Z,10.82
2022-11-17T00:57:25.261Z,10.00
2022-11-17T00:59:53.341Z,8.68
2022-11-17T01:02:21.802Z,6.28
2022-11-17T01:04:49.876Z,4.90
2022-11-17T01:07:18.281Z,5.03
2022-11-17T01:09:47.796Z,4.80
2022-11-17T01:12:16.344Z,5.55
2022-11-17T01:14:44.630Z,5.38
2022-11-17T01:17:13.141Z,4.80
2022-11-17T01:19:41.282Z,2.67
2022-11-17T01:22:09.736Z,7.53
2022-11-17T01:24:37.825Z,3.42
2022-11-17T01:27:07.770Z,2.97
2022-11-17T01:29:35.971Z,3.40
2022-11-17T01:32:04.392Z,2.53
2022-11-17T01:34:32.671Z,1.98
2022-11-17T01:37:18.496Z,2.58
2022-11-17T01:39:46.792Z,1.80
2022-11-17T01:42:18.409Z,1.63
2022-11-17T01:45:05.333Z,3.95
2022-11-17T01:47:37.859Z,3.90
2022-11-17T01:50:09.739Z,3.70
2022-11-17T01:52:39.265Z,3.10
2022-11-17T01:55:08.662Z,2.78
2022-11-17T01:57:42.021Z,3.38
2022-11-17T02:00:12.621Z,2.25
2022-11-17T02:02:42.167Z,1.80
2022-11-17T02:05:19.880Z,3.40
2022-11-17T02:07:48.628Z,3.30
2022-11-17T02:10:17.167Z,3.10
2022-11-17T02:12:47.125Z,2.28
2022-11-17T02:15:15.278Z,2.92
2022-11-17T02:17:44.425Z,3.28
2022-11-17T02:20:15.103Z,2.70
2022-11-17T02:22:57.536Z,2.65
2022-11-17T02:25:39.335Z,2.80
2022-11-17T02:28:14.583Z,2.75
2022-11-17T02:30:49.157Z,2.83
2022-11-17T02:33:27.135Z,2.85
2022-11-17T02:36:00.108Z,2.72
2022-11-17T02:38:32.777Z,2.58
2022-11-17T02:41:06.539Z,2.55
2022-11-17T02:43:58.150Z,4.20
2022-11-17T02:46:26.987Z,2.72
2022-11-17T02:48:57.952Z,3.70
2022-11-17T02:51:26.414Z,3.05
2022-11-17T02:53:56.214Z,3.10
2022-11-17T02:56:24.298Z,3.70
2022-11-17T02:58:56.179Z,2.90
2022-11-17T03:01:37.117Z,3.10
2022-11-17T03:04:23.084Z,2.67
2022-11-17T03:06:58.713Z,3.22
2022-11-17T03:09:34.178Z,4.43
2022-11-17T03:12:07.876Z,4.35
2022-11-17T03:14:43.901Z,2.97
2022-11-17T03:17:15.232Z,2.83
2022-11-17T03:19:46.280Z,3.10
2022-11-17T03:22:17.878Z,3.08
2022-11-17T03:24:49.276Z,2.85
2022-11-17T03:27:20.745Z,4.75
2022-11-17T03:29:52.274Z,2.85
2022-11-17T03:32:20.565Z,2.50
2022-11-17T03:34:52.111Z,3.45
2022-11-17T03:37:20.993Z,4.30
2022-11-17T03:39:51.935Z,4.32
2022-11-17T03:42:23.515Z,6.25
2022-11-17T03:44:57.088Z,4.47
2022-11-17T03:47:27.117Z,2.92
2022-11-17T03:49:59.677Z,3.27
2022-11-17T03:52:29.842Z,4.70
2022-11-17T03:54:58.316Z,3.55
2022-11-17T03:57:30.557Z,4.07
2022-11-17T04:00:02.334Z,5.50
2022-11-17T04:02:30.490Z,3.65
2022-11-17T04:05:07.515Z,4.50
2022-11-17T04:07:37.343Z,2.45
2022-11-17T04:10:06.882Z,2.88
2022-11-17T04:12:52.394Z,2.92
2022-11-17T04:15:40.298Z,4.35
2022-11-17T04:18:08.384Z,3.45
2022-11-17T04:20:37.023Z,3.40
2022-11-17T04:23:08.463Z,6.82
2022-11-17T04:25:54.626Z,3.75
2022-11-17T04:28:38.570Z,3.45
2022-11-17T04:31:10.800Z,2.83
2022-11-17T04:33:40.230Z,3.08
2022-11-17T04:36:09.459Z,3.38
2022-11-17T04:38:37.589Z,3.88
2022-11-17T04:41:25.517Z,4.25
2022-11-17T04:43:54.576Z,2.53
2022-11-17T04:46:24.809Z,3.45
2022-11-17T04:48:53.926Z,3.60
2022-11-17T04:51:22.668Z,3.22
2022-11-17T04:53:51.023Z,3.70
2022-11-17T04:56:20.489Z,4.20
2022-11-17T04:58:48.916Z,3.22
2022-11-17T05:01:18.209Z,7.35
2022-11-17T05:03:49.408Z,4.85
2022-11-17T05:06:19.999Z,3.97
2022-11-17T05:08:48.680Z,5.13
2022-11-17T05:11:35.889Z,3.42
2022-11-17T05:14:04.274Z,4.78
2022-11-17T05:16:50.477Z,5.05
2022-11-17T05:19:21.402Z,2.35
2022-11-17T05:21:50.548Z,3.42
2022-11-17T05:24:18.230Z,3.95
2022-11-17T05:26:48.031Z,3.42
2022-11-17T05:29:17.502Z,2.92
2022-11-17T05:31:46.604Z,4.30
2022-11-17T05:34:17.421Z,4.68
2022-11-17T05:36:47.615Z,4.80
2022-11-17T05:39:16.438Z,2.72
2022-11-17T05:41:44.822Z,1.95
2022-11-17T05:44:13.050Z,3.65
2022-11-17T05:46:41.315Z,4.05
2022-11-17T05:49:09.585Z,6.75
2022-11-17T05:51:38.718Z,3.95
2022-11-17T05:54:08.344Z,4.90
2022-11-17T05:56:40.439Z,4.65
2022-11-17T05:59:17.412Z,4.80
2022-11-17T06:01:49.825Z,5.75
2022-11-17T06:04:19.702Z,3.78
2022-11-17T06:06:49.401Z,4.22
2022-11-17T06:09:19.016Z,5.25
2022-11-17T06:11:47.378Z,4.13
2022-11-17T06:14:15.722Z,4.95
2022-11-17T06:16:46.045Z,2.90
2022-11-17T06:19:18.117Z,2.63
2022-11-17T06:22:10.736Z,2.70
2022-11-17T06:24:36.119Z,3.60
2022-11-17T06:27:05.520Z,4.35
2022-11-17T06:29:36.112Z,4.00
2022-11-17T06:32:06.902Z,6.45
2022-11-17T06:34:35.129Z,4.15
2022-11-17T06:37:03.628Z,5.85
2022-11-17T06:39:31.847Z,3.90
2022-11-17T06:42:01.761Z,4.20
2022-11-17T06:44:29.863Z,4.28
2022-11-17T06:46:58.227Z,2.83
2022-11-17T06:49:26.415Z,4.35
2022-11-17T06:51:55.406Z,5.35
2022-11-17T06:54:23.545Z,3.65
2022-11-17T06:56:52.684Z,2.70
2022-11-17T06:59:22.140Z,2.72
2022-11-17T07:01:50.627Z,3.83
2022-11-17T07:04:18.704Z,2.08
2022-11-17T07:06:47.112Z,3.50
2022-11-17T07:09:15.170Z,2.75
2022-11-17T07:11:43.531Z,5.80
2022-11-17T07:14:11.583Z,2.92
2022-11-17T07:16:42.849Z,2.92
2022-11-17T07:19:11.036Z,4.70
2022-11-17T07:21:39.418Z,2.85
2022-11-17T07:24:08.244Z,4.32
2022-11-17T07:26:36.683Z,4.07
2022-11-17T07:29:05.101Z,4.55
2022-11-17T07:31:35.720Z,6.03
2022-11-17T07:34:05.267Z,4.28
2022-11-17T07:36:34.659Z,4.28
2022-11-17T07:39:02.776Z,5.60
2022-11-17T07:41:32.204Z,4.93
2022-11-17T07:44:00.622Z,7.38
2022-11-17T07:46:29.087Z,6.68
2022-11-17T07:48:57.225Z,6.22
2022-11-17T07:51:26.572Z,5.15
2022-11-17T07:53:55.103Z,4.55
2022-11-17T07:56:23.166Z,7.18
2022-11-17T07:58:51.587Z,4.70
2022-11-17T08:01:19.724Z,3.78
2022-11-17T08:03:48.340Z,4.72
2022-11-17T08:06:16.997Z,4.93
2022-11-17T08:08:48.529Z,5.28
2022-11-17T08:11:16.759Z,3.63
2022-11-17T08:13:45.124Z,3.90
2022-11-17T08:16:13.542Z,5.78
2022-11-17T08:18:44.900Z,12.27
2022-11-17T08:21:16.137Z,6.22
2022-11-17T08:23:46.217Z,7.03
2022-11-17T08:26:14.465Z,6.57
2022-11-17T08:28:43.013Z,5.95
2022-11-17T08:31:11.130Z,8.75
2022-11-17T08:33:39.493Z,6.25
2022-11-17T08:36:08.307Z,3.90
2022-11-17T08:38:37.394Z,3.47
2022-11-17T08:41:08.965Z,5.05
2022-11-17T08:43:37.359Z,6.25
2022-11-17T08:46:06.069Z,6.47
2022-11-17T08:48:34.930Z,4.90
2022-11-17T08:51:06.379Z,6.90
2022-11-17T08:53:35.088Z,4.22
2022-11-17T08:56:03.197Z,12.18
2022-11-17T08:58:33.004Z,3.55
2022-11-17T09:01:05.285Z,16.60
2022-11-17T09:03:34.201Z,6.50
2022-11-17T09:06:03.050Z,5.95
2022-11-17T09:08:56.028Z,4.72
2022-11-17T09:11:20.282Z,10.75
2022-11-17T09:13:50.031Z,17.45
2022-11-17T09:16:19.604Z,3.95
2022-11-17T09:18:48.167Z,10.57
2022-11-17T09:21:17.326Z,9.80
2022-11-17T09:23:45.903Z,4.72
2022-11-17T09:26:14.863Z,6.63
2022-11-17T09:28:44.156Z,5.47
2022-11-17T09:31:15.305Z,3.75
2022-11-17T09:33:44.510Z,4.43
2022-11-17T09:36:13.699Z,4.88
2022-11-17T09:38:42.255Z,4.72
2022-11-17T09:41:22.674Z,5.00
2022-11-17T09:43:55.795Z,6.82
2022-11-17T09:46:29.118Z,3.55
2022-11-17T09:49:00.861Z,4.50
2022-11-17T09:51:31.080Z,5.30
2022-11-17T09:54:04.452Z,6.25
2022-11-17T09:56:32.798Z,9.80
2022-11-17T09:59:04.351Z,3.38
2022-11-17T10:01:33.862Z,5.75
2022-11-17T10:04:02.185Z,7.47
2022-11-17T10:06:32.031Z,7.90
2022-11-17T10:09:04.004Z,6.38
2022-11-17T10:11:35.040Z,8.32
2022-11-17T10:16:34.034Z,6.47
2022-11-17T10:19:03.391Z,7.90
2022-11-17T10:21:31.747Z,4.38
2022-11-17T10:24:00.644Z,5.15
2022-11-17T10:26:28.943Z,5.18
2022-11-17T10:29:08.711Z,4.72
2022-11-17T10:31:47.029Z,4.25
2022-11-17T10:34:36.979Z,4.65
2022-11-17T10:37:28.660Z,4.43
2022-11-17T10:40:25.114Z,3.20
2022-11-17T10:43:18.139Z,3.83
2022-11-17T10:45:47.067Z,6.47
2022-11-17T10:48:26.379Z,4.90
2022-11-17T10:50:56.307Z,5.68
2022-11-17T10:53:27.416Z,5.60
2022-11-17T10:58:26.970Z,5.40
2022-11-17T11:00:56.875Z,6.07
2022-11-17T11:03:29.034Z,8.05
2022-11-17T11:06:24.182Z,11.35
2022-11-17T11:08:56.657Z,10.13
2022-11-17T11:11:42.403Z,11.07
2022-11-17T11:14:17.255Z,7.78
2022-11-17T11:16:48.496Z,9.07
2022-11-17T11:19:20.585Z,6.53
2022-11-17T11:22:12.433Z,5.78
2022-11-17T11:24:46.779Z,8.02
2022-11-17T11:27:27.891Z,8.90
2022-11-17T11:30:03.201Z,7.22
2022-11-17T11:32:44.214Z,6.65
2022-11-17T11:35:56.310Z,12.10
2022-11-17T11:38:34.277Z,8.10
2022-11-17T11:41:13.169Z,6.68
2022-11-17T11:43:50.660Z,8.20
2022-11-17T11:46:20.085Z,7.07
2022-11-17T11:48:49.536Z,7.68
2022-11-17T11:51:20.474Z,8.20
2022-11-17T11:53:52.135Z,9.07
2022-11-17T11:58:54.563Z,8.32
2022-11-17T12:01:24.031Z,7.75
2022-11-17T12:03:59.593Z,7.85
2022-11-17T12:06:44.314Z,5.90
2022-11-17T12:09:25.317Z,11.27
2022-11-17T12:12:03.129Z,7.32
2022-11-17T12:14:33.237Z,4.70
2022-11-17T12:17:07.569Z,9.57
2022-11-17T12:19:55.418Z,9.18
2022-11-17T12:22:56.130Z,7.93
2022-11-17T12:25:29.402Z,6.90
2022-11-17T12:27:57.702Z,9.80
2022-11-17T12:30:51.791Z,9.48
2022-11-17T12:33:20.374Z,13.60
2022-11-17T12:36:31.134Z,7.53
2022-11-17T12:39:01.974Z,11.40
2022-11-17T12:42:05.366Z,11.18
2022-11-17T12:44:44.730Z,12.60
2022-11-17T12:47:16.296Z,12.73
2022-11-17T12:52:17.532Z,11.80
2022-11-17T12:54:57.580Z,9.70
2022-11-17T12:57:28.829Z,9.05
2022-11-17T13:00:10.200Z,7.63
2022-11-17T13:02:57.730Z,10.15
2022-11-17T13:05:27.340Z,8.85
2022-11-17T13:08:12.881Z,14.18
2022-11-17T13:10:42.924Z,11.60
2022-11-17T13:13:12.782Z,7.90
2022-11-17T13:15:42.455Z,8.52
2022-11-17T13:18:20.301Z,8.18
2022-11-17T13:20:49.862Z,9.27
2022-11-17T13:23:22.198Z,12.93
2022-11-17T13:25:52.117Z,9.10
2022-11-17T13:28:31.016Z,5.00
2022-11-17T13:31:00.393Z,4.70
2022-11-17T13:33:29.753Z,7.53
2022-11-17T13:36:09.491Z,7.70
2022-11-17T13:38:38.054Z,7.00
2022-11-17T13:41:07.931Z,7.68
2022-11-17T13:43:39.722Z,10.40
2022-11-17T13:46:08.159Z,12.05
2022-11-17T13:48:37.965Z,5.53
2022-11-17T13:51:23.066Z,8.63
2022-11-17T13:53:52.702Z,8.20
2022-11-17T13:56:27.575Z,8.73
2022-11-17T13:58:56.285Z,7.90
2022-11-17T14:01:28.604Z,12.32
2022-11-17T14:04:19.817Z,9.73
2022-11-17T14:07:00.682Z,7.07
2022-11-17T14:09:30.884Z,6.47
2022-11-17T14:12:00.504Z,7.82
2022-11-17T14:14:33.868Z,10.55
2022-11-17T14:17:12.443Z,9.35
2022-11-17T14:19:40.958Z,13.15
2022-11-17T14:22:30.926Z,14.35
2022-11-17T14:25:00.542Z,20.10
2022-11-17T14:27:41.435Z,10.15
2022-11-17T14:30:13.260Z,12.88
2022-11-17T14:32:41.439Z,11.65
2022-11-17T14:35:13.992Z,14.27
2022-11-17T14:37:42.716Z,16.63
2022-11-17T14:40:14.875Z,18.42
2022-11-17T14:42:44.695Z,18.20
2022-11-17T14:45:16.897Z,22.27
2022-11-17T14:47:45.336Z,15.40
2022-11-17T14:50:14.918Z,10.32
2022-11-17T14:52:43.861Z,9.23
2022-11-17T14:55:12.871Z,14.65
2022-11-17T14:57:41.412Z,11.55
2022-11-17T15:00:18.855Z,9.68
2022-11-17T15:02:48.807Z,12.23
2022-11-17T15:05:17.374Z,11.52
2022-11-17T15:07:45.478Z,12.65
2022-11-17T15:10:13.897Z,16.70
2022-11-17T15:12:42.063Z,11.63
2022-11-17T15:15:12.703Z,13.52
2022-11-17T15:17:40.818Z,9.73
2022-11-17T15:20:10.563Z,14.30
2022-11-17T15:22:39.952Z,16.58
2022-11-17T15:25:09.743Z,13.82
2022-11-17T15:27:37.892Z,11.90
2022-11-17T15:30:07.658Z,17.52
2022-11-17T15:32:37.615Z,19.35
2022-11-17T15:35:06.766Z,16.77
2022-11-17T15:37:34.848Z,10.10
2022-11-17T15:40:03.319Z,11.80
2022-11-17T15:42:31.467Z,12.65
2022-11-17T15:44:59.867Z,13.52
2022-11-17T15:47:27.926Z,9.57
2022-11-17T15:49:58.707Z,8.73
2022-11-17T15:52:48.768Z,14.98
2022-11-17T15:55:15.669Z,14.45
2022-11-17T15:57:43.824Z,7.38
2022-11-17T16:00:13.519Z,12.63
2022-11-17T16:02:42.167Z,11.32
2022-11-17T16:05:12.120Z,9.48
2022-11-17T16:07:40.339Z,15.18
2022-11-17T16:10:09.661Z,11.13
2022-11-17T16:12:37.809Z,11.80
2022-11-17T16:15:09.602Z,13.00
2022-11-17T16:17:37.808Z,16.00
2022-11-17T16:20:07.424Z,11.85
2022-11-17T16:22:37.096Z,26.45
2022-11-17T16:25:07.520Z,18.15
2022-11-17T16:27:35.842Z,10.40
2022-11-17T16:30:05.164Z,14.95
2022-11-17T16:32:33.363Z,13.10
2022-11-17T16:35:01.765Z,13.90
2022-11-17T16:37:30.022Z,15.65
2022-11-17T16:40:01.501Z,12.00
2022-11-17T16:42:29.859Z,20.95
2022-11-17T16:44:58.598Z,42.97
2022-11-17T16:47:26.718Z,25.83
2022-11-17T16:49:55.302Z,20.83
2022-11-17T16:52:23.599Z,13.48
2022-11-17T16:54:52.289Z,11.80
2022-11-17T16:57:22.028Z,19.88
2022-11-17T16:59:50.408Z,20.40
2022-11-17T17:02:18.589Z,19.33
2022-11-17T17:04:47.113Z,15.27
2022-11-17T17:07:15.437Z,24.08
2022-11-17T17:09:43.945Z,13.82
2022-11-17T17:12:12.341Z,18.15
2022-11-17T17:14:42.145Z,17.58
2022-11-17T17:17:10.301Z,20.75
2022-11-17T17:19:38.608Z,19.55
2022-11-17T17:22:07.023Z,20.45
2022-11-17T17:24:35.530Z,26.55
2022-11-17T17:27:05.146Z,25.88
2022-11-17T17:29:33.751Z,23.63
2022-11-17T17:32:03.869Z,27.05
2022-11-17T17:34:32.563Z,27.27
2022-11-17T17:37:01.099Z,18.25
2022-11-17T17:39:29.761Z,17.10
2022-11-17T17:41:58.122Z,18.02
2022-11-17T17:44:26.757Z,20.15
2022-11-17T17:46:57.403Z,23.05
2022-11-17T17:49:27.174Z,22.63
2022-11-17T17:51:55.593Z,16.00
2022-11-17T17:54:25.431Z,23.20
2022-11-17T17:56:54.033Z,13.40
2022-11-17T17:59:22.460Z,13.95
2022-11-17T18:01:51.565Z,15.52
2022-11-17T18:04:19.997Z,14.18
2022-11-17T18:06:49.691Z,22.98
2022-11-17T18:09:20.436Z,24.92
2022-11-17T18:11:50.573Z,18.35
2022-11-17T18:14:22.570Z,13.13
2022-11-17T18:16:51.158Z,14.50
2022-11-17T18:19:20.233Z,17.90
2022-11-17T18:21:49.776Z,18.80
2022-11-17T18:24:18.360Z,17.98
2022-11-17T18:26:46.591Z,19.55
2022-11-17T18:29:18.504Z,17.55
2022-11-17T18:31:47.751Z,14.20
2022-11-17T18:34:18.854Z,16.10
2022-11-17T18:36:47.073Z,21.50
2022-11-17T18:39:17.399Z,16.00
2022-11-17T18:41:45.840Z,20.20
2022-11-17T18:44:14.520Z,19.00
2022-11-17T18:46:42.755Z,19.70
2022-11-17T18:49:11.512Z,15.23
2022-11-17T18:51:39.765Z,18.13
2022-11-17T18:54:08.954Z,17.42
2022-11-17T18:56:39.020Z,17.13
2022-11-17T18:59:11.697Z,16.70
2022-11-17T19:01:45.406Z,16.38
2022-11-17T19:04:14.969Z,28.77
2022-11-17T19:06:43.234Z,20.52
2022-11-17T19:09:14.063Z,19.63
2022-11-17T19:11:43.878Z,16.23
2022-11-17T19:14:12.496Z,17.52
2022-11-17T19:16:44.949Z,17.35
2022-11-17T19:19:15.319Z,14.88
2022-11-17T19:21:44.278Z,20.95
2022-11-17T19:24:12.949Z,14.40
2022-11-17T19:26:41.156Z,17.33
2022-11-17T19:29:16.846Z,13.73
2022-11-17T19:31:46.085Z,17.17
2022-11-17T19:34:15.134Z,12.23
2022-11-17T19:36:44.618Z,13.82
2022-11-17T19:39:14.644Z,18.77
2022-11-17T19:41:47.889Z,17.63
2022-11-17T19:44:17.735Z,16.02
2022-11-17T19:46:45.898Z,23.50
2022-11-17T19:49:14.596Z,18.05
2022-11-17T19:51:43.137Z,17.58
2022-11-17T19:54:13.420Z,15.75
2022-11-17T19:56:41.680Z,15.77
2022-11-17T19:59:15.601Z,23.30
2022-11-17T20:01:46.890Z,22.70
2022-11-17T20:04:15.499Z,21.10
2022-11-17T20:06:43.762Z,22.45
2022-11-17T20:09:14.247Z,18.27
2022-11-17T20:11:42.866Z,18.77
2022-11-17T20:14:11.509Z,17.85
2022-11-17T20:16:39.589Z,23.92
2022-11-17T20:19:10.308Z,25.80
2022-11-17T20:21:38.457Z,19.65
2022-11-17T20:24:07.312Z,23.58
2022-11-17T20:26:36.361Z,25.77
2022-11-17T20:29:05.052Z,25.23
2022-11-17T20:31:35.372Z,29.30
2022-11-17T20:34:05.692Z,31.77
2022-11-17T20:36:35.741Z,26.65
2022-11-17T20:39:05.769Z,26.27
2022-11-17T20:41:34.088Z,25.30
2022-11-17T20:44:03.421Z,29.52
2022-11-17T20:46:32.002Z,22.23
2022-11-17T20:49:00.462Z,21.27
2022-11-17T20:51:28.611Z,20.60
2022-11-17T20:53:58.414Z,21.38
2022-11-17T20:56:26.620Z,19.35
2022-11-17T20:58:55.104Z,16.60
2022-11-17T21:01:24.178Z,22.08
2022-11-17T21:03:52.780Z,16.50
2022-11-17T21:06:23.162Z,17.45
2022-11-17T21:08:51.911Z,17.45
2022-11-17T21:11:40.920Z,18.60
2022-11-17T21:14:11.542Z,18.98
2022-11-17T21:16:41.444Z,16.13
2022-11-17T21:19:10.196Z,17.70
2022-11-17T21:21:38.404Z,13.73
2022-11-17T21:24:07.442Z,14.80
2022-11-17T21:26:37.267Z,13.50
2022-11-17T21:29:06.907Z,13.05
2022-11-17T21:31:35.753Z,15.35
2022-11-17T21:34:06.359Z,11.40
2022-11-17T21:36:35.654Z,14.23
2022-11-17T21:39:04.723Z,13.98
2022-11-17T21:41:35.433Z,14.73
2022-11-17T21:44:05.677Z,13.02
2022-11-17T21:46:35.113Z,12.65
2022-11-17T21:49:03.851Z,11.45
2022-11-17T21:51:33.460Z,15.23
2022-11-17T21:54:03.813Z,15.57
2022-11-17T21:56:32.280Z,17.42
2022-11-17T21:59:01.981Z,14.48
2022-11-17T22:01:32.166Z,16.35
2022-11-17T22:04:00.695Z,13.10
2022-11-17T22:06:28.949Z,15.07
2022-11-17T22:08:57.922Z,15.15
2022-11-17T22:11:37.047Z,14.93
2022-11-17T22:14:09.228Z,17.30
2022-11-17T22:16:39.991Z,15.88
2022-11-17T22:19:09.053Z,12.85
2022-11-17T22:21:37.869Z,12.95
2022-11-17T22:24:07.925Z,17.55
2022-11-17T22:26:38.369Z,14.73
2022-11-17T22:29:08.390Z,16.42
2022-11-17T22:31:38.196Z,13.88
2022-11-17T22:34:06.704Z,17.35
2022-11-17T22:36:34.807Z,18.10
2022-11-17T22:39:03.201Z,15.93
2022-11-17T22:41:31.457Z,13.25
2022-11-17T22:44:00.491Z,13.75
2022-11-17T22:46:29.765Z,14.55
2022-11-17T22:49:02.160Z,13.82
2022-11-17T22:51:47.967Z,16.02
2022-11-17T22:54:16.323Z,12.82
2022-11-17T22:56:44.579Z,14.38
2022-11-17T22:59:13.057Z,14.57
2022-11-17T23:01:41.266Z,14.50
2022-11-17T23:04:12.689Z,16.00
2022-11-17T23:06:40.779Z,19.63
2022-11-17T23:09:09.508Z,20.75
2022-11-17T23:11:38.635Z,21.27
2022-11-17T23:14:08.554Z,20.30
2022-11-17T23:16:36.848Z,19.42
2022-11-17T23:19:06.136Z,18.00
2022-11-17T23:21:35.533Z,17.17
2022-11-17T23:24:05.190Z,14.38
2022-11-17T23:26:33.323Z,14.55
2022-11-17T23:29:01.888Z,15.32
2022-11-17T23:31:30.383Z,13.90
2022-11-17T23:33:58.894Z,17.17
2022-11-17T23:36:26.869Z,14.57
2022-11-17T23:38:57.820Z,16.73
2022-11-17T23:41:25.936Z,15.00
2022-11-17T23:43:55.250Z,15.18
2022-11-17T23:46:25.069Z,15.60
2022-11-17T23:48:54.076Z,17.63
2022-11-17T23:51:23.483Z,20.33
2022-11-17T23:53:52.165Z,19.48
2022-11-17T23:56:21.630Z,17.42
2022-11-17T23:58:50.550Z,18.42
